Time;durP1;ratioP1;P1;durP2;ratioP2;P2;SDS_P1;SDS_P2;PMS_P1;PMS_P2;Temp;Humidity;BMP_temperature;BMP_pressure;BME280_temperature;BME280_humidity;BME280_pressure;Samples;Min_cycle;Max_cycle;Signal;HPM_P1;HPM_P2
2022/09/30 00:01:24;;;;;;;2.45;0.60;;;15.80;94.20;;;;;;5072786;28;20025;-81
2022/09/30 00:03:54;;;;;;;3.78;0.40;;;15.80;94.30;;;;;;5072466;28;20078;-80
2022/09/30 00:06:21;;;;;;;0.73;0.22;;;15.80;94.10;;;;;;5072773;28;20039;-80
2022/09/30 00:08:47;;;;;;;2.25;0.57;;;15.80;94.00;;;;;;5072649;28;20032;-80
2022/09/30 00:11:18;;;;;;;1.20;0.30;;;15.80;94.00;;;;;;5072489;28;20032;-73
2022/09/30 00:13:46;;;;;;;1.85;0.45;;;15.80;94.00;;;;;;5072885;28;20379;-81
2022/09/30 00:16:14;;;;;;;3.60;0.65;;;15.70;93.90;;;;;;5072632;28;20056;-81
2022/09/30 00:18:40;;;;;;;4.75;0.57;;;15.70;93.80;;;;;;5072617;28;20145;-76
2022/09/30 00:21:07;;;;;;;2.05;0.40;;;15.70;93.80;;;;;;5072458;28;20111;-80
2022/09/30 00:23:33;;;;;;;1.50;0.32;;;15.70;93.90;;;;;;5072646;28;20017;-78
2022/09/30 00:26:01;;;;;;;1.40;0.45;;;15.60;93.80;;;;;;5072265;28;20170;-81
2022/09/30 00:28:28;;;;;;;2.92;0.30;;;15.60;93.90;;;;;;5071062;28;20489;-80
2022/09/30 00:30:58;;;;;;;2.20;0.45;;;15.60;94.00;;;;;;5072771;28;20025;-81
2022/09/30 00:33:23;;;;;;;1.83;0.25;;;15.60;94.00;;;;;;5072721;28;20017;-81
2022/09/30 00:35:49;;;;;;;1.70;0.40;;;15.60;94.00;;;;;;5075218;28;20422;-82
2022/09/30 00:38:15;;;;;;;2.58;0.52;;;15.50;94.00;;;;;;5076324;28;20036;-80
2022/09/30 00:40:41;;;;;;;1.38;0.40;;;15.50;94.10;;;;;;5076642;28;20103;-81
2022/09/30 00:43:16;;;;;;;1.50;0.35;;;15.50;94.00;;;;;;5076644;28;20052;-80
2022/09/30 00:45:51;;;;;;;0.95;0.30;;;15.50;94.00;;;;;;5076522;28;20124;-79
2022/09/30 00:48:30;;;;;;;1.85;0.50;;;15.50;94.00;;;;;;5076098;28;20039;-83
2022/09/30 00:50:57;;;;;;;1.23;0.40;;;15.50;94.00;;;;;;5076258;28;20067;-82
2022/09/30 00:53:44;;;;;;;0.93;0.40;;;15.50;93.90;;;;;;5076276;28;20013;-80
2022/09/30 00:56:21;;;;;;;1.77;0.38;;;15.50;93.90;;;;;;5075941;28;20052;-83
2022/09/30 00:59:03;;;;;;;2.30;0.43;;;15.40;93.80;;;;;;5074218;28;20693;-82
2022/09/30 01:01:29;;;;;;;;;;;15.40;93.80;;;;;;5073774;28;20103;-78
2022/09/30 01:04:03;;;;;;;4.68;0.50;;;15.30;93.70;;;;;;5073834;28;19960;-81
2022/09/30 01:06:29;;;;;;;1.15;0.50;;;15.30;93.80;;;;;;5075644;28;20174;-81
2022/09/30 01:08:57;;;;;;;1.95;0.47;;;15.30;93.80;;;;;;5075615;28;20056;-82
2022/09/30 01:11:23;;;;;;;1.40;0.40;;;15.30;93.80;;;;;;5075890;28;20052;-81
2022/09/30 01:13:54;;;;;;;1.35;0.32;;;15.30;93.80;;;;;;5075842;28;20031;-82
2022/09/30 01:16:38;;;;;;;2.15;0.50;;;15.30;93.80;;;;;;5075961;28;20024;-82
2022/09/30 01:19:29;;;;;;;1.50;0.40;;;15.30;93.70;;;;;;5075934;28;20035;-82
2022/09/30 01:22:08;;;;;;;1.52;0.38;;;15.30;93.60;;;;;;5075390;28;20117;-83
2022/09/30 01:24:46;;;;;;;2.78;0.30;;;15.30;93.50;;;;;;5075522;28;20029;-82
2022/09/30 01:27:45;;;;;;;1.35;0.30;;;15.30;93.50;;;;;;5075648;28;20036;-82
2022/09/30 01:30:20;;;;;;;2.00;0.50;;;15.30;93.50;;;;;;5075549;28;20025;-84
2022/09/30 01:33:04;;;;;;;4.68;0.30;;;15.30;93.30;;;;;;5074997;28;20440;-83
2022/09/30 01:35:52;;;;;;;4.32;0.40;;;15.20;93.30;;;;;;5075294;28;20024;-83
2022/09/30 01:38:34;;;;;;;1.63;0.30;;;15.30;93.40;;;;;;5075485;28;20359;-84
2022/09/30 01:41:06;;;;;;;1.40;0.22;;;15.20;93.40;;;;;;5075566;28;20104;-83
2022/09/30 01:43:44;;;;;;;1.17;0.30;;;15.20;93.40;;;;;;5075322;28;20028;-83
2022/09/30 01:46:42;;;;;;;1.15;0.30;;;15.20;93.40;;;;;;5074765;28;20020;-84
2022/09/30 01:49:21;;;;;;;1.05;0.30;;;15.20;93.40;;;;;;5075557;28;20112;-83
2022/09/30 01:52:40;;;;;;;0.82;0.30;;;15.20;93.50;;;;;;5075195;28;20028;-71
2022/09/30 01:55:30;;;;;;;0.50;0.20;;;15.20;93.50;;;;;;5052039;28;20047;-81
2022/09/30 01:57:57;;;;;;;0.35;0.20;;;15.20;93.40;;;;;;5074797;28;20516;-82
2022/09/30 02:00:24;;;;;;;0.70;0.30;;;15.20;93.40;;;;;;5075029;28;20424;-80
2022/09/30 02:03:08;;;;;;;1.63;0.40;;;15.20;93.30;;;;;;5074963;28;20025;-73
2022/09/30 02:05:49;;;;;;;0.85;0.40;;;15.20;93.30;;;;;;5075013;28;20048;-82
2022/09/30 02:08:25;;;;;;;5.65;1.50;;;15.20;93.30;;;;;;5075080;28;20090;-77
2022/09/30 02:10:59;;;;;;;0.45;0.20;;;15.20;93.30;;;;;;5074718;28;20036;-82
2022/09/30 02:13:29;;;;;;;1.02;0.30;;;15.20;93.20;;;;;;5074748;28;20016;-82
2022/09/30 02:15:59;;;;;;;3.00;0.40;;;15.20;93.20;;;;;;5073283;28;20029;-81
2022/09/30 02:18:40;;;;;;;3.28;0.40;;;15.10;93.10;;;;;;5074558;28;20474;-78
2022/09/30 02:21:08;;;;;;;1.95;0.45;;;15.10;93.20;;;;;;5074536;28;20040;-82
2022/09/30 02:23:41;;;;;;;1.55;0.47;;;15.10;93.40;;;;;;5074780;28;20409;-81
2022/09/30 02:26:16;;;;;;;1.27;0.43;;;15.10;93.60;;;;;;5074144;28;20548;-82
2022/09/30 02:28:48;;;;;;;0.75;0.32;;;15.00;93.60;;;;;;5074173;28;20063;-81
2022/09/30 02:31:15;;;;;;;2.83;0.80;;;15.10;93.50;;;;;;5074486;28;20421;-83
2022/09/30 02:33:49;;;;;;;1.00;0.40;;;15.10;93.50;;;;;;5074440;28;20150;-81
2022/09/30 02:36:15;;;;;;;2.30;0.43;;;15.10;93.50;;;;;;5074657;28;20081;-80
2022/09/30 02:38:44;;;;;;;1.58;0.47;;;15.00;93.50;;;;;;5074234;28;20500;-80
2022/09/30 02:41:18;;;;;;;3.08;0.50;;;15.00;93.60;;;;;;5074288;28;20017;-80
2022/09/30 02:43:44;;;;;;;1.77;0.73;;;15.00;93.70;;;;;;5074043;28;20021;-81
2022/09/30 02:46:49;;;;;;;4.18;0.40;;;15.00;93.60;;;;;;5073996;28;20036;-80
2022/09/30 02:49:43;;;;;;;1.67;0.40;;;15.00;93.70;;;;;;5073976;28;20089;-83
2022/09/30 02:52:22;;;;;;;1.92;0.40;;;15.00;93.70;;;;;;5069598;28;20183;-82
2022/09/30 02:55:07;;;;;;;2.42;0.30;;;15.10;93.80;;;;;;5073386;28;20496;-80
2022/09/30 02:57:57;;;;;;;2.53;0.57;;;15.10;93.90;;;;;;5073200;28;20032;-81
2022/09/30 03:00:23;;;;;;;1.55;0.40;;;15.10;93.80;;;;;;5073864;28;20070;-82
2022/09/30 03:02:56;;;;;;;2.50;0.90;;;15.10;93.80;;;;;;5073788;28;20024;-80
2022/09/30 03:05:22;;;;;;;3.53;0.50;;;15.10;93.80;;;;;;5073849;28;20032;-69
2022/09/30 03:07:47;;;;;;;1.85;0.47;;;15.10;93.90;;;;;;5073562;28;20036;-80
2022/09/30 03:10:15;;;;;;;2.20;0.38;;;15.10;93.90;;;;;;5073434;28;20363;-82
2022/09/30 03:13:10;;;;;;;0.88;0.30;;;15.10;93.90;;;;;;5073942;28;20020;-80
2022/09/30 03:16:00;;;;;;;2.15;0.40;;;15.20;94.00;;;;;;5073361;28;20035;-81
2022/09/30 03:18:58;;;;;;;2.63;0.50;;;15.20;93.90;;;;;;5072991;28;20032;-82
2022/09/30 03:21:50;;;;;;;2.33;0.40;;;15.20;93.90;;;;;;5073486;28;20025;-82
2022/09/30 03:24:31;;;;;;;2.40;0.40;;;15.20;93.90;;;;;;5073603;28;20024;-83
2022/09/30 03:27:23;;;;;;;3.90;0.40;;;15.20;93.90;;;;;;5073183;28;20344;-83
2022/09/30 03:30:06;;;;;;;1.25;0.45;;;15.20;93.80;;;;;;5073248;28;20475;-78
2022/09/30 03:33:02;;;;;;;1.17;0.57;;;15.20;93.80;;;;;;5073103;28;20425;-81
2022/09/30 03:35:46;;;;;;;1.95;0.40;;;15.20;93.70;;;;;;5073167;28;20020;-82
2022/09/30 03:38:25;;;;;;;3.70;0.50;;;15.20;93.80;;;;;;5072827;28;20025;-71
2022/09/30 03:40:56;;;;;;;1.85;0.50;;;15.20;93.80;;;;;;5073111;28;20066;-83
2022/09/30 03:43:56;;;;;;;2.03;0.80;;;15.20;93.80;;;;;;5072290;28;20378;-83
2022/09/30 03:46:30;;;;;;;1.15;0.52;;;15.20;93.90;;;;;;5072653;28;20040;-85
2022/09/30 03:49:00;;;;;;;2.55;0.47;;;15.20;93.80;;;;;;5072989;28;20025;-81
2022/09/30 03:51:28;;;;;;;2.17;0.43;;;15.20;93.80;;;;;;5073042;28;20055;-82
2022/09/30 03:53:55;;;;;;;2.33;0.85;;;15.20;93.80;;;;;;5072863;28;20542;-82
2022/09/30 03:56:28;;;;;;;1.90;0.50;;;15.20;93.80;;;;;;5072833;28;20044;-81
2022/09/30 03:58:55;;;;;;;1.38;0.57;;;15.20;93.80;;;;;;5073037;28;20021;-81
2022/09/30 04:01:22;;;;;;;3.40;0.50;;;15.20;93.80;;;;;;5072900;28;20012;-83
2022/09/30 04:03:52;;;;;;;2.30;0.52;;;15.20;93.80;;;;;;5073156;28;20021;-82
2022/09/30 04:06:19;;;;;;;1.38;0.50;;;15.20;93.80;;;;;;5072852;28;20482;-82
2022/09/30 04:08:45;;;;;;;2.00;0.40;;;15.20;93.80;;;;;;5072713;28;20059;-82
2022/09/30 04:11:11;;;;;;;1.13;0.40;;;15.20;93.70;;;;;;5072400;28;20060;-82
2022/09/30 04:13:37;;;;;;;1.15;0.40;;;15.20;93.70;;;;;;5073047;28;20052;-82
2022/09/30 04:16:04;;;;;;;2.92;0.35;;;15.20;93.70;;;;;;5072909;28;20055;-82
2022/09/30 04:18:31;;;;;;;1.13;0.40;;;15.20;93.70;;;;;;5072754;28;20021;-83
2022/09/30 04:20:58;;;;;;;1.10;0.30;;;15.20;93.70;;;;;;5072810;28;20037;-81
2022/09/30 04:23:24;;;;;;;1.85;0.47;;;15.20;93.70;;;;;;5072771;28;20082;-81
2022/09/30 04:25:55;;;;;;;2.65;0.50;;;15.20;93.70;;;;;;5072676;28;20028;-81
2022/09/30 04:28:22;;;;;;;0.47;0.30;;;15.20;93.70;;;;;;5072566;28;20387;-82
2022/09/30 04:30:47;;;;;;;2.50;0.50;;;15.20;93.70;;;;;;5072631;28;20071;-82
2022/09/30 04:33:13;;;;;;;1.40;0.40;;;15.20;93.70;;;;;;5072462;28;20024;-82
2022/09/30 04:35:39;;;;;;;3.85;1.00;;;15.20;93.60;;;;;;5072198;28;20040;-83
2022/09/30 04:38:06;;;;;;;1.98;0.43;;;15.20;93.70;;;;;;5072358;28;20024;-82
2022/09/30 04:40:35;;;;;;;0.75;0.40;;;15.20;93.60;;;;;;5072243;28;20419;-83
2022/09/30 04:43:01;;;;;;;0.68;0.30;;;15.20;93.70;;;;;;5071931;28;20074;-81
2022/09/30 04:45:28;;;;;;;1.60;0.57;;;15.20;93.70;;;;;;5072291;28;20097;-81
2022/09/30 04:47:54;;;;;;;1.00;0.50;;;15.20;93.70;;;;;;5072311;28;20158;-81
2022/09/30 04:50:20;;;;;;;2.35;0.50;;;15.10;93.80;;;;;;5072450;28;20474;-82
2022/09/30 04:52:46;;;;;;;1.92;0.30;;;15.20;93.80;;;;;;5072540;28;20025;-81
2022/09/30 04:55:12;;;;;;;2.08;0.43;;;15.20;93.80;;;;;;5071979;28;20056;-82
2022/09/30 04:57:38;;;;;;;3.60;0.30;;;15.20;93.70;;;;;;5072230;28;20024;-82
2022/09/30 05:00:07;;;;;;;0.90;0.43;;;15.20;93.70;;;;;;5072143;28;20029;-80
2022/09/30 05:02:33;;;;;;;0.28;0.20;;;15.20;93.70;;;;;;5072139;28;20103;-82
2022/09/30 05:04:59;;;;;;;0.95;0.30;;;15.10;93.70;;;;;;5072455;28;20496;-82
2022/09/30 05:07:25;;;;;;;1.30;0.40;;;15.20;93.90;;;;;;5072190;28;20478;-81
2022/09/30 05:09:52;;;;;;;2.72;0.40;;;15.10;93.80;;;;;;5072211;28;20530;-82
2022/09/30 05:12:18;;;;;;;0.75;0.30;;;15.10;93.60;;;;;;5072134;28;20066;-82
2022/09/30 05:14:43;;;;;;;1.58;0.60;;;15.20;93.70;;;;;;5079556;28;20055;-81
2022/09/30 05:17:09;;;;;;;1.75;0.30;;;15.20;93.70;;;;;;5091774;28;20070;-81
2022/09/30 05:19:35;;;;;;;2.08;0.52;;;15.20;93.70;;;;;;5092222;28;20035;-81
2022/09/30 05:22:01;;;;;;;4.47;0.50;;;15.10;93.60;;;;;;5092984;28;20032;-80
2022/09/30 05:24:28;;;;;;;2.35;0.40;;;15.20;93.90;;;;;;5095916;28;20028;-81
2022/09/30 05:26:54;;;;;;;1.85;0.40;;;15.20;93.70;;;;;;5095273;28;20043;-79
2022/09/30 05:29:20;;;;;;;1.55;0.47;;;15.20;93.70;;;;;;5095549;28;20451;-79
2022/09/30 05:31:45;;;;;;;4.82;0.30;;;15.20;94.00;;;;;;5095408;28;20028;-76
2022/09/30 05:34:11;;;;;;;3.25;0.47;;;15.10;93.70;;;;;;5095774;28;20482;-81
2022/09/30 05:36:37;;;;;;;0.65;0.32;;;15.20;93.70;;;;;;5095829;28;20027;-83
2022/09/30 05:39:03;;;;;;;1.63;0.47;;;15.20;93.60;;;;;;5095705;28;20032;-81
2022/09/30 05:41:29;;;;;;;1.65;0.40;;;15.20;93.60;;;;;;5095661;28;20489;-78
2022/09/30 05:43:54;;;;;;;1.17;0.30;;;15.20;93.60;;;;;;5095886;28;20035;-81
2022/09/30 05:46:20;;;;;;;3.50;0.50;;;15.20;93.60;;;;;;5095931;28;20067;-83
2022/09/30 05:48:46;;;;;;;3.60;0.40;;;15.20;93.60;;;;;;5115643;28;20462;-77
2022/09/30 05:51:12;;;;;;;3.35;0.40;;;15.20;93.70;;;;;;5116673;28;20032;-72
2022/09/30 05:53:38;;;;;;;3.22;0.60;;;15.20;93.80;;;;;;5113647;28;20028;-74
2022/09/30 05:56:06;;;;;;;2.03;0.43;;;15.30;93.90;;;;;;5115264;28;20059;-74
2022/09/30 05:58:32;;;;;;;1.75;0.63;;;15.30;93.90;;;;;;5112835;28;20018;-83
2022/09/30 06:01:06;;;;;;;2.97;0.60;;;15.30;93.80;;;;;;5095062;28;20436;-82
2022/09/30 06:03:31;;;;;;;1.58;0.40;;;15.30;93.50;;;;;;5095498;28;20028;-79
2022/09/30 06:05:57;;;;;;;3.33;0.38;;;15.30;93.40;;;;;;5095239;28;20027;-81
2022/09/30 06:08:23;;;;;;;0.93;0.30;;;15.30;93.40;;;;;;5094863;28;20059;-81
2022/09/30 06:10:49;;;;;;;2.35;0.40;;;15.30;93.40;;;;;;5094778;28;20020;-79
2022/09/30 06:13:16;;;;;;;4.25;0.50;;;15.40;93.40;;;;;;5094563;28;20028;-80
2022/09/30 06:15:42;;;;;;;1.17;0.30;;;15.30;93.30;;;;;;5094920;28;20088;-74
2022/09/30 06:18:08;;;;;;;2.03;0.40;;;15.30;93.30;;;;;;5095133;28;20046;-82
2022/09/30 06:20:35;;;;;;;7.00;0.60;;;15.40;93.30;;;;;;5095004;28;20025;-77
2022/09/30 06:23:02;;;;;;;1.63;0.60;;;15.40;93.40;;;;;;5094952;28;20031;-71
2022/09/30 06:25:29;;;;;;;3.05;0.43;;;15.40;93.50;;;;;;5094377;28;20028;-73
2022/09/30 06:27:55;;;;;;;0.85;0.40;;;15.40;93.60;;;;;;5094355;28;20461;-81
2022/09/30 06:30:21;;;;;;;1.35;0.50;;;15.40;93.60;;;;;;5094635;28;20024;-71
2022/09/30 06:32:47;;;;;;;3.20;0.38;;;15.40;93.60;;;;;;5094105;28;20024;-77
2022/09/30 06:35:13;;;;;;;3.10;0.52;;;15.40;93.70;;;;;;5094200;28;20559;-82
2022/09/30 06:37:38;;;;;;;1.70;0.73;;;15.40;93.70;;;;;;5094669;28;20024;-79
2022/09/30 06:40:06;;;;;;;2.17;0.30;;;15.40;93.70;;;;;;5094505;28;20028;-69
2022/09/30 06:42:32;;;;;;;6.18;0.68;;;15.40;93.70;;;;;;5094050;28;20035;-78
2022/09/30 06:44:58;;;;;;;1.10;0.50;;;15.40;93.80;;;;;;5094749;28;20419;-71
2022/09/30 06:47:24;;;;;;;3.05;1.25;;;15.50;93.80;;;;;;5094608;28;20074;-77
2022/09/30 06:49:52;;;;;;;2.88;0.68;;;15.40;94.00;;;;;;5088131;28;20393;-71
2022/09/30 06:52:18;;;;;;;4.00;0.90;;;15.40;94.20;;;;;;5093832;28;20081;-81
2022/09/30 06:54:45;;;;;;;4.38;0.90;;;15.40;94.30;;;;;;5093842;28;20077;-81
2022/09/30 06:57:11;;;;;;;2.40;0.50;;;15.40;94.50;;;;;;5094025;28;20035;-78
2022/09/30 06:59:37;;;;;;;3.00;0.60;;;15.40;94.50;;;;;;5093122;28;20039;-76
2022/09/30 07:02:03;;;;;;;4.50;0.52;;;15.40;94.70;;;;;;5094032;28;20032;-80
2022/09/30 07:04:29;;;;;;;3.83;0.80;;;15.40;94.90;;;;;;5093646;28;20032;-81
2022/09/30 07:06:55;;;;;;;3.42;0.80;;;15.40;95.00;;;;;;5093845;28;20490;-78
2022/09/30 07:09:20;;;;;;;1.63;0.60;;;15.40;95.10;;;;;;5093405;28;20474;-79
2022/09/30 07:11:47;;;;;;;3.70;0.98;;;15.50;95.20;;;;;;5094185;28;20319;-79
2022/09/30 07:14:12;;;;;;;2.17;0.70;;;15.50;95.30;;;;;;5093461;28;20525;-81
2022/09/30 07:16:38;;;;;;;3.15;0.60;;;15.50;95.30;;;;;;5093718;28;20132;-81
2022/09/30 07:19:05;;;;;;;3.65;0.80;;;15.60;95.30;;;;;;5093151;28;20052;-82
2022/09/30 07:21:31;;;;;;;2.90;0.60;;;15.60;95.30;;;;;;5092258;28;20447;-81
2022/09/30 07:23:58;;;;;;;1.73;0.80;;;15.60;95.30;;;;;;5093225;28;20016;-84
2022/09/30 07:26:25;;;;;;;2.15;0.65;;;15.70;95.40;;;;;;5092824;28;20127;-80
2022/09/30 07:28:51;;;;;;;3.40;0.80;;;15.70;95.40;;;;;;5092719;28;20023;-77
2022/09/30 07:31:20;;;;;;;3.08;1.38;;;15.70;95.50;;;;;;5072398;28;20099;-80
2022/09/30 07:33:46;;;;;;;3.08;0.68;;;15.70;95.50;;;;;;5071421;28;20021;-76
2022/09/30 07:36:16;;;;;;;3.53;0.70;;;15.80;95.50;;;;;;5070940;28;20056;-82
2022/09/30 07:38:42;;;;;;;2.05;0.80;;;15.80;95.60;;;;;;5070762;28;20025;-71
2022/09/30 07:41:20;;;;;;;6.88;1.08;;;15.90;95.70;;;;;;5070928;28;20367;-81
2022/09/30 07:43:47;;;;;;;3.97;0.95;;;15.90;95.50;;;;;;5070521;28;20445;-82
2022/09/30 07:46:28;;;;;;;2.60;0.85;;;16.00;95.50;;;;;;5069758;28;20024;-82
2022/09/30 07:48:56;;;;;;;3.90;1.25;;;16.00;95.40;;;;;;5050195;28;20052;-81
2022/09/30 07:51:26;;;;;;;2.65;0.60;;;16.10;95.50;;;;;;5050591;28;20028;-83
2022/09/30 07:53:54;;;;;;;1.98;0.60;;;16.10;95.50;;;;;;5050701;28;20052;-83
2022/09/30 07:56:21;;;;;;;3.08;0.90;;;16.20;95.40;;;;;;5052365;28;20143;-83
2022/09/30 07:58:48;;;;;;;4.07;0.65;;;16.30;95.30;;;;;;5052536;28;20021;-82
2022/09/30 08:01:15;;;;;;;1.77;0.60;;;16.30;95.10;;;;;;5052087;28;20025;-83
2022/09/30 08:03:43;;;;;;;2.67;0.68;;;16.40;95.00;;;;;;5051816;28;20025;-82
2022/09/30 08:06:14;;;;;;;2.13;0.60;;;16.40;94.90;;;;;;5052007;28;20552;-69
2022/09/30 08:08:42;;;;;;;3.23;1.10;;;16.40;94.80;;;;;;5052921;28;20033;-67
2022/09/30 08:11:09;;;;;;;3.10;0.60;;;16.40;94.50;;;;;;5072231;28;20259;-69
2022/09/30 08:13:35;;;;;;;3.33;0.50;;;16.40;94.30;;;;;;5072436;28;20116;-67
2022/09/30 08:16:01;;;;;;;1.40;0.60;;;16.50;94.30;;;;;;5072283;28;20029;-68
2022/09/30 08:18:27;;;;;;;1.25;0.60;;;16.40;94.30;;;;;;5072462;28;20027;-76
2022/09/30 08:20:53;;;;;;;1.75;0.65;;;16.40;94.30;;;;;;5072574;28;20056;-67
2022/09/30 08:23:19;;;;;;;1.48;0.50;;;16.40;94.20;;;;;;5071723;28;20110;-68
2022/09/30 08:25:45;;;;;;;3.38;0.70;;;16.40;94.40;;;;;;5071992;28;20028;-68
2022/09/30 08:28:11;;;;;;;5.13;0.70;;;16.40;94.50;;;;;;5072088;28;20036;-67
2022/09/30 08:30:38;;;;;;;2.40;0.80;;;16.50;94.50;;;;;;5072363;28;20035;-67
2022/09/30 08:33:04;;;;;;;4.53;0.65;;;16.50;94.60;;;;;;5072254;28;20059;-67
2022/09/30 08:35:30;;;;;;;2.13;0.47;;;16.50;94.60;;;;;;5072418;28;20028;-67
2022/09/30 08:37:56;;;;;;;1.90;0.47;;;16.50;94.50;;;;;;5071896;28;20082;-73
2022/09/30 08:40:32;;;;;;;3.03;0.85;;;16.50;94.50;;;;;;5071970;28;20025;-71
2022/09/30 08:43:22;;;;;;;4.10;0.60;;;16.50;94.40;;;;;;5072149;28;20454;-67
2022/09/30 08:45:53;;;;;;;2.65;0.50;;;16.50;94.30;;;;;;5072396;28;20032;-67
2022/09/30 08:48:42;;;;;;;2.03;0.50;;;16.60;94.40;;;;;;5072116;28;20029;-67
2022/09/30 08:51:29;;;;;;;3.60;0.63;;;16.60;94.40;;;;;;5070251;28;20490;-69
2022/09/30 08:53:58;;;;;;;3.05;0.50;;;16.70;94.40;;;;;;5072639;28;20029;-67
2022/09/30 08:56:30;;;;;;;0.88;0.40;;;16.80;94.60;;;;;;5074140;28;20094;-67
2022/09/30 08:59:03;;;;;;;2.47;0.60;;;16.90;94.80;;;;;;5076576;28;20056;-67
2022/09/30 09:01:39;;;;;;;4.68;0.52;;;16.90;94.50;;;;;;5076348;28;20021;-68
2022/09/30 09:04:06;;;;;;;3.53;1.33;;;17.00;94.20;;;;;;5075391;28;20081;-68
2022/09/30 09:06:38;;;;;;;2.08;0.52;;;17.00;94.00;;;;;;5075574;28;20040;-67
2022/09/30 09:09:22;;;;;;;1.10;0.40;;;17.10;94.00;;;;;;5075956;28;20020;-67
2022/09/30 09:11:59;;;;;;;3.65;0.85;;;17.10;93.90;;;;;;5075970;28;20021;-67
2022/09/30 09:14:36;;;;;;;2.83;0.60;;;17.10;93.80;;;;;;5075905;28;20510;-68
2022/09/30 09:17:07;;;;;;;2.10;0.50;;;17.20;93.70;;;;;;5075918;28;20025;-67
2022/09/30 09:19:44;;;;;;;3.25;0.60;;;17.20;93.70;;;;;;5076340;28;20498;-67
2022/09/30 09:22:10;;;;;;;3.97;0.77;;;17.20;93.80;;;;;;5076255;28;20474;-69
2022/09/30 09:24:44;;;;;;;1.83;0.55;;;17.20;93.80;;;;;;5075590;28;20025;-75
2022/09/30 09:27:17;;;;;;;4.35;1.05;;;17.20;93.80;;;;;;5075428;28;20526;-67
2022/09/30 09:30:06;;;;;;;2.72;0.55;;;17.20;93.80;;;;;;5075626;28;20074;-67
2022/09/30 09:32:33;;;;;;;4.25;0.80;;;17.30;93.90;;;;;;5072655;28;20175;-67
2022/09/30 09:35:24;;;;;;;5.25;0.80;;;17.30;93.90;;;;;;5071910;28;20081;-67
2022/09/30 09:38:28;;;;;;;0.95;0.40;;;17.30;94.00;;;;;;5072480;28;20062;-67
2022/09/30 09:41:22;;;;;;;6.38;0.70;;;17.30;93.90;;;;;;5074671;28;20494;-67
2022/09/30 09:43:57;;;;;;;6.88;0.77;;;17.30;93.90;;;;;;5075307;28;20103;-68
2022/09/30 09:46:37;;;;;;;3.25;0.90;;;17.40;94.00;;;;;;5075132;28;20043;-67
2022/09/30 09:49:12;;;;;;;4.38;0.60;;;17.40;94.00;;;;;;5075369;28;20025;-67
2022/09/30 09:52:02;;;;;;;2.38;0.70;;;17.40;93.90;;;;;;5075128;28;20040;-67
2022/09/30 09:54:30;;;;;;;3.80;0.80;;;17.50;93.80;;;;;;5074636;28;20044;-67
2022/09/30 09:57:04;;;;;;;3.83;0.65;;;17.50;93.90;;;;;;5075423;28;20033;-67
2022/09/30 09:59:30;;;;;;;2.58;0.70;;;17.50;93.80;;;;;;5074956;28;20029;-67
2022/09/30 10:01:55;;;;;;;2.60;0.80;;;17.50;93.80;;;;;;5073421;28;20078;-68
2022/09/30 10:04:25;;;;;;;3.30;0.70;;;17.50;93.80;;;;;;5072024;28;20025;-67
2022/09/30 10:06:54;;;;;;;4.20;0.70;;;17.50;93.70;;;;;;5071626;28;20090;-67
2022/09/30 10:09:24;;;;;;;5.35;1.10;;;17.50;93.80;;;;;;5073698;28;20044;-67
2022/09/30 10:11:51;;;;;;;5.88;0.90;;;17.50;93.90;;;;;;5074930;28;20112;-67
2022/09/30 10:14:20;;;;;;;3.42;1.00;;;17.50;93.90;;;;;;5074637;28;20066;-67
2022/09/30 10:16:46;;;;;;;1.95;0.60;;;17.60;93.90;;;;;;5072048;28;20103;-67
2022/09/30 10:19:25;;;;;;;2.08;0.65;;;17.60;94.00;;;;;;5071955;28;20032;-67
2022/09/30 10:22:12;;;;;;;4.70;0.77;;;17.70;94.30;;;;;;5074434;28;20028;-67
2022/09/30 10:24:39;;;;;;;3.88;0.70;;;17.70;94.00;;;;;;5074710;28;20025;-67
2022/09/30 10:27:33;;;;;;;5.80;0.60;;;17.80;93.90;;;;;;5074193;28;20139;-67
2022/09/30 10:29:58;;;;;;;1.58;0.77;;;17.90;94.00;;;;;;5070045;28;20044;-68
2022/09/30 10:32:25;;;;;;;1.85;0.60;;;18.00;93.80;;;;;;5073557;28;20029;-70
2022/09/30 10:35:19;;;;;;;2.67;0.70;;;18.00;93.60;;;;;;5074486;28;20103;-67
2022/09/30 10:37:53;;;;;;;1.92;0.65;;;18.10;93.40;;;;;;5074300;28;20025;-69
2022/09/30 10:40:26;;;;;;;3.45;0.50;;;18.20;93.50;;;;;;5073560;28;20028;-67
2022/09/30 10:42:52;;;;;;;2.35;0.52;;;18.30;93.30;;;;;;5072641;28;20028;-67
2022/09/30 10:45:35;;;;;;;3.20;0.63;;;18.30;93.10;;;;;;5073743;28;20111;-67
2022/09/30 10:48:06;;;;;;;3.40;0.50;;;18.30;93.10;;;;;;5073916;28;20059;-68
2022/09/30 10:50:32;;;;;;;2.42;0.60;;;18.30;92.90;;;;;;5073991;28;20533;-67
2022/09/30 10:53:03;;;;;;;2.05;0.75;;;18.30;92.80;;;;;;5074130;28;20108;-67
2022/09/30 10:55:40;;;;;;;3.90;0.77;;;18.30;92.80;;;;;;5072351;28;20418;-67
2022/09/30 10:58:27;;;;;;;5.07;0.70;;;18.20;92.90;;;;;;5073310;28;20047;-67
2022/09/30 11:01:11;;;;;;;2.60;0.50;;;18.30;92.80;;;;;;5073217;28;20494;-67
2022/09/30 11:03:56;;;;;;;1.42;0.60;;;18.20;92.80;;;;;;5072135;28;20351;-67
2022/09/30 11:06:23;;;;;;;4.05;0.80;;;18.30;92.60;;;;;;5073023;28;20390;-67
2022/09/30 11:08:51;;;;;;;1.98;0.60;;;18.30;92.50;;;;;;5072551;28;20060;-70
2022/09/30 11:11:26;;;;;;;3.22;0.90;;;18.40;92.60;;;;;;5074074;28;20024;-67
2022/09/30 11:14:16;;;;;;;1.38;0.50;;;18.40;92.70;;;;;;5071294;28;20054;-67
2022/09/30 11:16:59;;;;;;;2.13;0.47;;;18.40;92.40;;;;;;5070893;28;20089;-67
2022/09/30 11:19:39;;;;;;;2.35;0.57;;;18.40;92.00;;;;;;5072636;28;20029;-67
2022/09/30 11:22:34;;;;;;;5.85;0.55;;;18.40;91.90;;;;;;5073253;28;20055;-66
2022/09/30 11:25:00;;;;;;;4.55;0.70;;;18.40;91.90;;;;;;5072825;28;20375;-67
2022/09/30 11:27:59;;;;;;;2.05;0.65;;;18.40;91.90;;;;;;5073267;28;20040;-67
2022/09/30 11:30:49;;;;;;;3.88;0.70;;;18.40;91.90;;;;;;5073089;28;20028;-70
2022/09/30 11:33:25;;;;;;;3.63;0.63;;;18.40;91.80;;;;;;5072830;28;20040;-67
2022/09/30 11:35:59;;;;;;;3.00;0.73;;;18.40;91.80;;;;;;5073203;28;20024;-67
2022/09/30 11:38:43;;;;;;;3.47;0.63;;;18.40;91.90;;;;;;5071423;28;20028;-67
2022/09/30 11:41:32;;;;;;;3.20;0.68;;;18.40;92.10;;;;;;5070617;28;20113;-67
2022/09/30 11:44:18;;;;;;;5.80;1.20;;;18.40;92.20;;;;;;5070432;28;20478;-67
2022/09/30 11:47:09;;;;;;;1.42;0.47;;;18.40;91.90;;;;;;5073034;28;20044;-66
2022/09/30 11:49:58;;;;;;;3.50;0.50;;;18.40;91.90;;;;;;5072959;28;20051;-68
2022/09/30 11:53:02;;;;;;;2.83;0.52;;;18.30;91.90;;;;;;5072686;28;20028;-66
2022/09/30 11:56:03;;;;;;;1.38;0.30;;;18.40;92.00;;;;;;5072449;28;20494;-67
2022/09/30 11:58:36;;;;;;;3.53;0.60;;;18.30;92.00;;;;;;5072477;28;20016;-67
2022/09/30 12:01:27;;;;;;;7.15;0.65;;;18.30;92.10;;;;;;5071977;28;20522;-67
2022/09/30 12:04:05;;;;;;;7.15;0.70;;;18.30;92.30;;;;;;5073066;28;20025;-66
2022/09/30 12:06:36;;;;;;;2.80;0.60;;;18.30;92.20;;;;;;5072709;28;20474;-67
2022/09/30 12:09:15;;;;;;;3.55;0.50;;;18.40;92.30;;;;;;5072350;28;20031;-67
2022/09/30 12:11:48;;;;;;;4.75;0.70;;;18.40;92.30;;;;;;5072669;28;20104;-67
2022/09/30 12:14:36;;;;;;;3.92;0.95;;;18.40;92.30;;;;;;5072772;28;20035;-67
2022/09/30 12:17:06;;;;;;;4.25;0.82;;;18.30;92.40;;;;;;5072586;28;20382;-67
2022/09/30 12:19:40;;;;;;;5.43;0.90;;;18.40;92.70;;;;;;5072598;28;20028;-67
2022/09/30 12:22:19;;;;;;;2.83;0.60;;;18.30;92.80;;;;;;5072640;28;20052;-67
2022/09/30 12:24:45;;;;;;;1.83;0.60;;;18.30;92.80;;;;;;5072328;28;20033;-67
2022/09/30 12:27:34;;;;;;;5.05;0.95;;;18.30;92.80;;;;;;5072723;28;20044;-66
2022/09/30 12:30:17;;;;;;;9.32;0.77;;;18.30;92.80;;;;;;5072801;28;20481;-67
2022/09/30 12:33:04;;;;;;;8.15;0.80;;;18.30;92.90;;;;;;5076865;28;20031;-67
2022/09/30 12:35:39;;;;;;;3.08;0.90;;;18.30;93.00;;;;;;5076586;28;20029;-67
2022/09/30 12:38:30;;;;;;;3.80;1.02;;;18.30;93.10;;;;;;5076292;28;20029;-67
2022/09/30 12:40:56;;;;;;;4.43;0.90;;;18.30;93.20;;;;;;5076565;28;20017;-67
2022/09/30 12:43:29;;;;;;;2.95;0.80;;;18.30;93.20;;;;;;5077008;28;20038;-67
2022/09/30 12:46:20;;;;;;;3.70;0.80;;;18.30;93.30;;;;;;5076237;28;20035;-68
2022/09/30 12:48:46;;;;;;;3.97;1.45;;;18.30;93.40;;;;;;5074641;28;20043;-67
2022/09/30 12:51:23;;;;;;;2.70;0.65;;;18.30;93.40;;;;;;5073622;28;20032;-68
2022/09/30 12:53:55;;;;;;;6.28;0.77;;;18.30;93.40;;;;;;5074715;28;20540;-67
2022/09/30 12:56:27;;;;;;;4.25;0.70;;;18.30;93.40;;;;;;5075917;28;20528;-67
2022/09/30 12:58:53;;;;;;;5.20;1.37;;;18.30;93.40;;;;;;5076268;28;20074;-67
2022/09/30 13:01:24;;;;;;;4.10;0.50;;;18.30;93.30;;;;;;5076252;28;20313;-67
2022/09/30 13:04:00;;;;;;;7.10;0.88;;;18.30;93.30;;;;;;5076013;28;20478;-71
2022/09/30 13:06:47;;;;;;;1.73;0.43;;;18.30;93.30;;;;;;5075795;28;20024;-67
2022/09/30 13:09:15;;;;;;;3.47;0.75;;;18.30;93.40;;;;;;5073973;28;20036;-67
2022/09/30 13:11:45;;;;;;;1.65;1.00;;;18.30;93.60;;;;;;5073357;28;20111;-68
2022/09/30 13:14:16;;;;;;;3.45;0.70;;;18.30;93.50;;;;;;5073051;28;20028;-67
2022/09/30 13:17:06;;;;;;;2.00;0.52;;;18.30;93.30;;;;;;5075965;28;20039;-67
2022/09/30 13:19:39;;;;;;;3.83;0.63;;;18.20;92.30;;;;;;5073050;28;20036;-75